CheckWX is a tool to help pilots better visualize weather data.  It is not intended as a substitute for an official pre-flight weather briefing.

01:05:52 UTC

KCVS METAR
Cannon AFB Airport
Clovis, New Mexico, USA
Current

1 hour ago

KCVS 192358Z AUTO 17003KT 10SM OVC180 33/09 A3010 RMK AO2 SLP126 60000 T03280089 10340 20295 55004 $
Observed
Aug-19 @ 23:58 UTC
Wind
  • 170° at 3 KTS
Visibility
10 SM
Flight Rules
VFR
Cloud Levels
  • Overcast at 18,000' AGL
Temperature
33°C / 91°F
Dewpoint
C / 48°F
Humidity
23%
Altimeter
30.1" Hg
Pressure
1019.32 hPa
Previous

2 hours ago

KCVS 192258Z AUTO 24005KT 10SM OVC150 33/10 A3010 RMK AO2 SLPNO T03260100 $
Observed
Aug-19 @ 22:58 UTC
Wind
  • 240° at 5 KTS
Visibility
10 SM
Flight Rules
VFR
Cloud Levels
  • Overcast at 15,000' AGL
Temperature
33°C / 91°F
Dewpoint
10°C / 50°F
Humidity
24%
Altimeter
30.1" Hg
Pressure
1019.32 hPa
Previous

3 hours ago

KCVS 192158Z AUTO 24006KT 10SM BKN150 34/11 A3010 RMK AO2 SLP124 T03360108 $
Observed
Aug-19 @ 21:58 UTC
Wind
  • 240° at 6 KTS
Visibility
10 SM
Flight Rules
VFR
Cloud Levels
  • Broken at 15,000' AGL
Temperature
34°C / 93°F
Dewpoint
11°C / 52°F
Humidity
24%
Altimeter
30.1" Hg
Pressure
1019.32 hPa